Clarkston, Washington
Current Conditions -  °F | °C
As of 5:56 AM on Friday 19 Dec 2014 (Local Time) from KLWS Reporting Station
Light Rain Light Rain  
Wind Chill: 37°   Ceiling: 5000
Heat Index: 42°   Visibility: 10mi
Dew Point: 38°   Wind: 9mph
Humidity: 85%   Direction: 110°ESE
Pressure: 29.92"   Gusts: NA
Location:  46.41°N, 117.04°W
Report Text: KLWS 191356Z AUTO 11008KT 10SM -RA OVC050 06/03 A2992 RMK AO2 RAB07 SLP138 P0001 T00560033
Loading
Personal Weather Stations






























Interactive Weather Map New forecast layout! Learn more

10-Day Weather Forecast

Advertisements
Track Severe Weather on mobile